foto1
foto1
foto1
foto1
foto1


Bienvenue sur le site de l'Aéroclub Dassault Breguet Biarritz

Actualités:

METAR LFBZ

LFBZ 250200Z AUTO 14003KT CAVOK 04/02 Q1023 NOSIG

TAF LFBZ

TAF LFBZ 241700Z 2418/2518 35009KT CAVOK BECMG 2420/2422 09008KT

Accès Membres

Réserver un avion

Pour réserver un avion cliquer sur le logo Openflyers

logo openflyers

Flux RSS

Aerobuzz

Actualité et information aéronautique